Time;durP1;ratioP1;P1;durP2;ratioP2;P2;SDS_P1;SDS_P2;PMS_P1;PMS_P2;Temp;Humidity;BMP_temperature;BMP_pressure;BME280_temperature;BME280_humidity;BME280_pressure;Samples;Min_cycle;Max_cycle;Signal;HPM_P1;HPM_P2
2022/07/12 00:01:02;;;;;;;2.67;2.05;;;23.70;63.40;;;;;;5038191;28;20136;-62
2022/07/12 00:03:28;;;;;;;2.30;2.10;;;23.70;63.40;;;;;;5022555;28;20043;-63
2022/07/12 00:05:54;;;;;;;3.58;2.30;;;23.60;63.40;;;;;;5037076;28;20120;-63
2022/07/12 00:08:19;;;;;;;2.85;1.98;;;23.60;63.40;;;;;;5005472;28;20506;-63
2022/07/12 00:10:45;;;;;;;4.70;2.30;;;23.60;63.40;;;;;;5023308;28;20021;-64
2022/07/12 00:13:10;;;;;;;2.53;1.90;;;23.60;63.50;;;;;;5039781;28;20037;-63
2022/07/12 00:15:36;;;;;;;3.17;1.90;;;23.60;63.60;;;;;;5038565;28;20052;-63
2022/07/12 00:18:02;;;;;;;2.38;1.90;;;23.50;63.70;;;;;;5039831;28;20118;-63
2022/07/12 00:20:28;;;;;;;3.22;2.03;;;23.50;63.80;;;;;;5039572;28;20047;-62
2022/07/12 00:22:54;;;;;;;2.67;2.22;;;23.50;63.90;;;;;;5037762;28;20504;-64
2022/07/12 00:25:20;;;;;;;5.07;2.55;;;23.50;63.90;;;;;;5040887;28;20052;-63
2022/07/12 00:27:45;;;;;;;2.95;2.75;;;23.40;63.90;;;;;;5038956;28;20532;-63
2022/07/12 00:30:11;;;;;;;2.95;2.55;;;23.40;64.00;;;;;;5039881;28;20040;-63
2022/07/12 00:32:36;;;;;;;3.38;2.55;;;23.40;64.10;;;;;;5023973;28;20025;-62
2022/07/12 00:35:02;;;;;;;2.85;2.55;;;23.40;64.10;;;;;;5040429;28;20018;-63
2022/07/12 00:37:28;;;;;;;4.85;2.72;;;23.40;64.20;;;;;;5024593;28;20393;-62
2022/07/12 00:39:53;;;;;;;3.13;2.45;;;23.40;64.30;;;;;;5038849;28;20056;-62
2022/07/12 00:42:19;;;;;;;2.85;1.88;;;23.30;64.30;;;;;;5021408;28;20065;-63
2022/07/12 00:44:44;;;;;;;2.28;2.05;;;23.30;64.40;;;;;;5040508;28;20041;-62
2022/07/12 00:47:32;;;;;;;4.07;2.00;;;23.30;64.50;;;;;;5040145;28;20072;-62
2022/07/12 00:49:58;;;;;;;2.35;2.00;;;23.20;64.60;;;;;;5038566;28;20036;-63
2022/07/12 00:52:24;;;;;;;2.65;2.08;;;23.20;64.60;;;;;;5044793;28;20036;-63
2022/07/12 00:54:49;;;;;;;2.63;1.92;;;23.20;64.80;;;;;;5044421;28;20021;-63
2022/07/12 00:57:15;;;;;;;3.75;2.00;;;23.10;64.80;;;;;;5044570;28;20118;-62
2022/07/12 00:59:41;;;;;;;3.03;1.90;;;23.20;64.90;;;;;;5043930;28;20032;-62
2022/07/12 01:02:06;;;;;;;4.55;1.80;;;23.10;64.90;;;;;;5044562;28;20064;-60
2022/07/12 01:04:32;;;;;;;3.72;1.40;;;23.10;65.00;;;;;;5025247;28;20137;-61
2022/07/12 01:06:57;;;;;;;3.70;1.67;;;23.10;65.10;;;;;;5025528;28;20452;-60
2022/07/12 01:09:23;;;;;;;3.45;1.50;;;23.10;65.30;;;;;;5023043;28;20033;-63
2022/07/12 01:11:48;;;;;;;4.05;0.90;;;23.00;65.40;;;;;;5043290;28;20453;-61
2022/07/12 01:14:14;;;;;;;2.63;1.40;;;23.00;65.70;;;;;;5025788;28;20029;-61
2022/07/12 01:16:39;;;;;;;3.95;1.67;;;23.00;65.80;;;;;;5042609;28;20071;-60
2022/07/12 01:19:06;;;;;;;1.63;1.30;;;22.90;65.60;;;;;;5010941;28;20110;-59
2022/07/12 01:21:32;;;;;;;2.20;1.13;;;22.90;65.80;;;;;;5040514;28;20244;-60
2022/07/12 01:23:58;;;;;;;3.38;1.70;;;22.90;65.90;;;;;;5027116;28;20025;-63
2022/07/12 01:26:23;;;;;;;3.53;1.40;;;22.90;65.90;;;;;;5025242;28;20061;-63
2022/07/12 01:28:49;;;;;;;1.85;1.67;;;22.90;66.60;;;;;;5025445;28;20094;-63
2022/07/12 01:31:15;;;;;;;4.15;1.60;;;22.90;66.10;;;;;;5009081;28;20440;-63
2022/07/12 01:33:40;;;;;;;1.90;1.60;;;22.80;66.10;;;;;;5023641;28;20025;-60
2022/07/12 01:36:06;;;;;;;3.00;1.63;;;22.80;66.20;;;;;;5025405;28;20031;-60
2022/07/12 01:38:31;;;;;;;2.75;1.80;;;22.80;67.00;;;;;;5025734;28;20404;-60
2022/07/12 01:40:57;;;;;;;2.67;1.30;;;22.70;66.40;;;;;;5040258;28;20036;-60
2022/07/12 01:43:22;;;;;;;4.32;1.50;;;22.70;66.80;;;;;;5021992;28;20098;-60
2022/07/12 01:45:48;;;;;;;1.40;1.30;;;22.70;66.90;;;;;;5039747;28;21448;-61
2022/07/12 01:48:13;;;;;;;1.95;1.48;;;22.60;66.80;;;;;;5038980;28;20037;-61
2022/07/12 01:50:39;;;;;;;1.25;1.10;;;22.60;66.80;;;;;;5026925;28;20118;-60
2022/07/12 01:53:06;;;;;;;1.98;1.33;;;22.60;66.90;;;;;;5040332;28;20059;-60
2022/07/12 01:55:31;;;;;;;3.28;1.33;;;22.60;67.00;;;;;;5039104;28;20990;-61
2022/07/12 01:57:57;;;;;;;3.08;1.27;;;22.60;67.20;;;;;;5021655;28;20124;-61
2022/07/12 02:00:22;;;;;;;2.20;1.05;;;22.50;67.30;;;;;;5042019;28;20108;-61
2022/07/12 02:02:48;;;;;;;2.55;1.50;;;22.50;67.50;;;;;;5040738;28;20113;-61
2022/07/12 02:05:13;;;;;;;2.97;2.00;;;22.50;67.60;;;;;;5041950;28;20492;-61
2022/07/12 02:07:39;;;;;;;3.63;1.70;;;22.40;67.60;;;;;;5039684;28;20068;-60
2022/07/12 02:10:06;;;;;;;1.98;1.58;;;22.40;67.70;;;;;;5024836;28;20037;-61
2022/07/12 02:12:31;;;;;;;2.65;1.77;;;22.40;67.80;;;;;;5041908;28;20391;-61
2022/07/12 02:14:57;;;;;;;3.30;2.10;;;22.40;68.00;;;;;;5043856;28;20059;-60
2022/07/12 02:17:22;;;;;;;2.83;1.95;;;22.40;67.90;;;;;;5040984;28;21120;-60
2022/07/12 02:19:48;;;;;;;3.38;1.83;;;22.40;68.00;;;;;;5040176;28;20140;-60
2022/07/12 02:22:13;;;;;;;2.03;1.40;;;22.50;68.10;;;;;;5024359;28;20051;-60
2022/07/12 02:24:39;;;;;;;1.83;1.33;;;22.30;68.10;;;;;;5040849;28;20131;-62
2022/07/12 02:27:04;;;;;;;2.03;1.42;;;22.30;68.20;;;;;;5039086;28;20111;-61
2022/07/12 02:29:30;;;;;;;3.90;1.50;;;22.30;68.40;;;;;;5042371;28;20037;-60
2022/07/12 02:31:55;;;;;;;1.88;1.50;;;22.20;68.60;;;;;;5038499;28;20025;-61
2022/07/12 02:34:21;;;;;;;4.78;1.85;;;22.20;68.70;;;;;;5038586;28;20503;-60
2022/07/12 02:36:46;;;;;;;4.18;2.00;;;22.20;68.80;;;;;;5038160;28;20053;-61
2022/07/12 02:39:12;;;;;;;3.47;2.10;;;22.10;68.80;;;;;;5021422;28;20075;-61
2022/07/12 02:41:38;;;;;;;3.08;1.70;;;22.20;68.90;;;;;;5037119;28;20588;-61
2022/07/12 02:44:03;;;;;;;2.60;1.58;;;22.10;68.80;;;;;;5040668;28;20040;-61
2022/07/12 02:46:29;;;;;;;4.65;1.95;;;22.10;68.90;;;;;;5036636;28;20132;-60
2022/07/12 02:48:54;;;;;;;3.38;2.03;;;22.10;68.90;;;;;;5039035;28;20044;-61
2022/07/12 02:51:20;;;;;;;3.40;1.70;;;22.10;69.00;;;;;;5038084;28;20041;-60
2022/07/12 02:53:45;;;;;;;3.55;1.63;;;22.10;69.00;;;;;;5040210;28;20035;-61
2022/07/12 02:56:11;;;;;;;2.90;1.52;;;22.10;69.00;;;;;;5040823;28;20032;-61
2022/07/12 02:58:37;;;;;;;3.47;1.80;;;22.00;69.10;;;;;;5039726;28;20547;-60
2022/07/12 03:01:03;;;;;;;2.40;1.63;;;22.00;69.10;;;;;;5021161;28;20036;-61
2022/07/12 03:03:28;;;;;;;2.30;1.35;;;21.90;69.20;;;;;;5037352;28;20119;-61
2022/07/12 03:05:54;;;;;;;2.63;1.42;;;22.10;69.50;;;;;;5036309;28;20436;-60
2022/07/12 03:08:19;;;;;;;2.95;1.50;;;21.90;69.50;;;;;;5039622;28;20013;-61
2022/07/12 03:10:45;;;;;;;1.55;1.30;;;21.90;69.50;;;;;;5021538;28;20032;-60
2022/07/12 03:13:10;;;;;;;1.70;1.33;;;21.90;69.60;;;;;;5033535;28;20535;-61
2022/07/12 03:15:36;;;;;;;3.60;1.35;;;21.80;69.60;;;;;;5038230;28;20105;-60
2022/07/12 03:18:02;;;;;;;3.45;1.77;;;21.80;69.70;;;;;;5037299;28;20040;-60
2022/07/12 03:20:28;;;;;;;3.90;1.40;;;21.90;69.70;;;;;;5022376;28;20031;-60
2022/07/12 03:22:54;;;;;;;2.20;1.42;;;21.80;69.70;;;;;;5036522;28;20029;-61
2022/07/12 03:25:20;;;;;;;3.78;1.35;;;21.80;69.80;;;;;;5037653;28;20106;-61
2022/07/12 03:27:46;;;;;;;3.50;1.08;;;21.70;69.90;;;;;;5036611;28;20091;-62
2022/07/12 03:30:12;;;;;;;2.80;2.13;;;21.70;69.80;;;;;;5035361;28;20045;-60
2022/07/12 03:32:37;;;;;;;4.05;2.90;;;21.70;69.90;;;;;;5019257;28;20057;-61
2022/07/12 03:35:03;;;;;;;4.15;2.60;;;21.60;70.00;;;;;;5036670;28;20043;-61
2022/07/12 03:37:46;;;;;;;2.67;1.90;;;21.70;70.10;;;;;;5037047;28;20013;-60
2022/07/12 03:40:13;;;;;;;3.15;1.90;;;21.60;70.20;;;;;;5035371;28;20124;-61
2022/07/12 03:42:38;;;;;;;5.32;2.10;;;21.60;70.20;;;;;;5020202;28;20040;-60
2022/07/12 03:45:04;;;;;;;5.45;1.90;;;21.60;70.20;;;;;;5037428;28;20045;-60
2022/07/12 03:47:31;;;;;;;4.53;1.90;;;21.60;70.40;;;;;;5036798;28;20044;-60
2022/07/12 03:49:57;;;;;;;2.75;1.60;;;21.60;70.40;;;;;;5034274;28;20175;-60
2022/07/12 03:52:22;;;;;;;4.13;2.40;;;21.60;70.30;;;;;;5037237;28;20392;-60
2022/07/12 03:54:48;;;;;;;4.70;3.05;;;21.60;70.40;;;;;;5037741;28;20044;-60
2022/07/12 03:57:14;;;;;;;3.17;2.45;;;21.50;70.50;;;;;;5036633;28;20025;-61
2022/07/12 03:59:40;;;;;;;3.83;2.53;;;21.50;70.60;;;;;;5035701;28;20079;-60
2022/07/12 04:02:05;;;;;;;7.68;2.33;;;21.50;70.60;;;;;;5037080;28;20028;-60
2022/07/12 04:04:31;;;;;;;3.35;2.05;;;21.50;70.70;;;;;;5036304;28;20472;-60
2022/07/12 04:06:56;;;;;;;5.15;2.30;;;21.50;70.80;;;;;;5039715;28;20114;-61
2022/07/12 04:09:22;;;;;;;4.80;2.17;;;21.50;70.70;;;;;;5035632;28;20033;-60
2022/07/12 04:11:47;;;;;;;26.48;4.20;;;21.40;70.80;;;;;;5038600;28;20031;-60
2022/07/12 04:14:13;;;;;;;17.73;4.40;;;21.40;70.90;;;;;;5021430;28;20086;-61
2022/07/12 04:16:39;;;;;;;19.73;3.90;;;21.40;71.00;;;;;;5038503;28;20843;-60
2022/07/12 04:19:05;;;;;;;15.10;3.42;;;21.40;71.00;;;;;;5037282;28;20501;-61
2022/07/12 04:21:31;;;;;;;12.02;3.10;;;21.30;71.10;;;;;;5037010;28;20669;-60
2022/07/12 04:23:56;;;;;;;18.55;3.38;;;21.30;71.30;;;;;;5036446;28;20036;-60
2022/07/12 04:26:22;;;;;;;15.70;3.67;;;21.30;71.40;;;;;;5034912;28;20037;-60
2022/07/12 04:28:48;;;;;;;20.33;3.60;;;21.30;71.50;;;;;;5037230;28;20098;-60
2022/07/12 04:31:13;;;;;;;13.95;3.45;;;21.30;71.60;;;;;;5037951;28;20485;-61
2022/07/12 04:33:39;;;;;;;15.43;3.25;;;21.30;71.60;;;;;;5033186;28;20738;-61
2022/07/12 04:36:04;;;;;;;19.63;3.22;;;21.30;71.70;;;;;;5036369;28;20079;-60
2022/07/12 04:38:30;;;;;;;9.57;2.83;;;21.30;71.70;;;;;;5036670;28;20810;-60
2022/07/12 04:40:55;;;;;;;9.98;3.35;;;21.30;71.70;;;;;;5039170;28;20040;-60
2022/07/12 04:43:24;;;;;;;9.70;3.20;;;21.20;71.80;;;;;;5039062;28;20393;-60
2022/07/12 04:45:49;;;;;;;11.60;2.42;;;21.30;71.90;;;;;;5032142;28;20167;-60
2022/07/12 04:48:16;;;;;;;11.52;2.53;;;21.20;72.00;;;;;;5037816;28;20103;-60
2022/07/12 04:50:41;;;;;;;15.07;2.35;;;21.20;72.10;;;;;;5035950;28;20870;-61
2022/07/12 04:53:07;;;;;;;10.52;2.42;;;21.20;72.30;;;;;;5038835;28;20044;-60
2022/07/12 04:55:32;;;;;;;6.32;2.13;;;21.10;72.40;;;;;;5037510;28;20039;-61
2022/07/12 04:57:58;;;;;;;7.28;2.22;;;21.10;72.60;;;;;;5036995;28;20040;-60
2022/07/12 05:00:23;;;;;;;6.60;2.42;;;21.10;72.60;;;;;;5036995;28;20576;-60
2022/07/12 05:02:49;;;;;;;6.50;2.13;;;21.10;72.80;;;;;;5038551;28;20807;-61
2022/07/12 05:05:14;;;;;;;7.57;2.33;;;21.10;72.70;;;;;;5035305;28;20210;-60
2022/07/12 05:07:41;;;;;;;10.48;2.50;;;21.10;72.90;;;;;;5033862;28;20656;-63
2022/07/12 05:10:06;;;;;;;3.70;2.45;;;21.10;72.90;;;;;;5034850;28;20033;-61
2022/07/12 05:12:32;;;;;;;10.35;2.17;;;21.10;72.90;;;;;;5034361;28;20112;-62
2022/07/12 05:14:57;;;;;;;9.48;2.33;;;21.10;72.90;;;;;;5036458;28;20033;-60
2022/07/12 05:17:23;;;;;;;5.43;1.98;;;21.10;72.90;;;;;;5038059;28;20033;-60
2022/07/12 05:19:48;;;;;;;10.60;2.53;;;21.10;72.90;;;;;;5037284;28;20021;-60
2022/07/12 05:22:14;;;;;;;5.07;2.40;;;21.10;73.00;;;;;;5038404;28;20509;-61
2022/07/12 05:24:39;;;;;;;3.78;2.40;;;21.10;73.00;;;;;;5036428;28;20041;-60
2022/07/12 05:27:05;;;;;;;5.30;2.50;;;21.10;73.10;;;;;;5035491;28;20045;-60
2022/07/12 05:29:30;;;;;;;6.00;2.95;;;21.10;73.10;;;;;;5033151;28;20462;-63
2022/07/12 05:31:56;;;;;;;6.93;3.40;;;21.10;73.20;;;;;;5036137;28;20124;-63
2022/07/12 05:34:22;;;;;;;5.43;3.10;;;21.00;73.10;;;;;;5036512;28;20037;-63
2022/07/12 05:36:48;;;;;;;7.07;2.90;;;21.00;73.20;;;;;;5036304;28;20285;-63
2022/07/12 05:39:13;;;;;;;6.53;2.90;;;21.00;73.20;;;;;;5024295;28;20048;-63
2022/07/12 05:41:39;;;;;;;8.75;3.38;;;21.00;73.20;;;;;;5039910;28;20091;-63
2022/07/12 05:44:04;;;;;;;6.45;2.75;;;21.00;73.30;;;;;;5042545;28;20585;-63
2022/07/12 05:46:30;;;;;;;5.68;2.75;;;20.90;73.30;;;;;;5031080;28;20120;-63
2022/07/12 05:48:56;;;;;;;6.05;2.30;;;21.00;73.40;;;;;;5041970;28;20041;-63
2022/07/12 05:54:05;;;;;;;7.63;2.67;;;21.00;73.50;;;;;;5041342;28;20503;-63
2022/07/12 05:56:31;;;;;;;6.22;2.20;;;20.90;73.50;;;;;;5042031;28;20021;-63
2022/07/12 05:58:56;;;;;;;4.53;2.17;;;20.90;73.60;;;;;;5040269;28;20029;-63
2022/07/12 06:01:22;;;;;;;4.82;2.53;;;20.90;73.60;;;;;;5038184;28;20045;-63
2022/07/12 06:03:47;;;;;;;4.40;2.10;;;20.90;73.60;;;;;;5042040;28;20036;-63
2022/07/12 06:06:13;;;;;;;3.95;2.40;;;20.90;73.80;;;;;;5042397;28;20040;-63
2022/07/12 06:08:39;;;;;;;4.40;2.17;;;20.90;73.90;;;;;;5039400;28;20090;-63
2022/07/12 06:11:04;;;;;;;3.30;2.10;;;20.90;74.10;;;;;;5040016;28;20029;-62
2022/07/12 06:13:30;;;;;;;4.00;2.08;;;20.80;74.00;;;;;;5038330;28;20562;-63
2022/07/12 06:15:55;;;;;;;3.75;2.00;;;20.80;74.10;;;;;;5022291;28;20504;-63
2022/07/12 06:18:21;;;;;;;10.07;2.65;;;20.80;74.20;;;;;;5033102;28;20389;-63
2022/07/12 06:20:47;;;;;;;5.05;2.13;;;20.80;74.20;;;;;;5035643;28;20036;-62
2022/07/12 06:23:13;;;;;;;7.25;2.50;;;20.90;74.40;;;;;;5039405;28;20021;-64
2022/07/12 06:25:39;;;;;;;7.30;2.70;;;20.80;74.30;;;;;;5023438;28;20048;-63
2022/07/12 06:28:05;;;;;;;5.63;2.00;;;20.80;74.90;;;;;;5023961;28;20021;-63
2022/07/12 06:30:30;;;;;;;4.63;1.92;;;20.80;74.60;;;;;;5038953;28;20697;-63
2022/07/12 06:32:56;;;;;;;8.80;2.33;;;20.80;74.70;;;;;;5037902;28;20044;-63
2022/07/12 06:35:21;;;;;;;5.47;2.35;;;20.80;74.80;;;;;;5037102;28;20040;-62
2022/07/12 06:37:47;;;;;;;7.55;2.35;;;20.80;74.90;;;;;;5035522;28;20040;-64
2022/07/12 06:40:16;;;;;;;8.70;2.53;;;20.80;74.90;;;;;;5035397;28;20041;-63
2022/07/12 06:42:42;;;;;;;7.82;2.35;;;20.80;74.90;;;;;;5038282;28;20371;-63
2022/07/12 06:45:09;;;;;;;4.47;2.53;;;20.90;75.20;;;;;;5041240;28;20112;-63
2022/07/12 06:47:34;;;;;;;12.93;2.75;;;20.90;75.50;;;;;;5025354;28;20025;-63
2022/07/12 06:50:00;;;;;;;10.18;2.63;;;20.90;75.50;;;;;;5041563;28;20087;-63
2022/07/12 06:52:25;;;;;;;15.75;3.03;;;20.90;75.20;;;;;;5024743;28;20360;-63
2022/07/12 06:54:51;;;;;;;11.15;2.58;;;20.90;75.20;;;;;;5039547;28;20049;-63
2022/07/12 06:57:16;;;;;;;26.08;3.10;;;20.90;75.30;;;;;;5041745;28;20031;-64
2022/07/12 06:59:42;;;;;;;11.82;2.80;;;20.90;75.60;;;;;;5023353;28;20052;-60
2022/07/12 07:02:07;;;;;;;18.30;3.15;;;20.90;75.50;;;;;;5043509;28;20029;-60
2022/07/12 07:04:33;;;;;;;15.05;3.65;;;20.90;75.50;;;;;;5041446;28;20036;-60
2022/07/12 07:06:58;;;;;;;14.05;3.22;;;20.90;75.40;;;;;;5041131;28;20045;-60
2022/07/12 07:09:24;;;;;;;11.57;2.50;;;21.00;75.70;;;;;;5039789;28;20508;-60
2022/07/12 07:11:49;;;;;;;11.02;2.70;;;21.00;75.80;;;;;;5039030;28;20697;-60
2022/07/12 07:14:15;;;;;;;13.82;3.58;;;21.00;75.70;;;;;;5038501;28;20037;-60
2022/07/12 07:16:40;;;;;;;34.17;4.60;;;21.00;75.60;;;;;;5040855;28;20021;-61
2022/07/12 07:19:06;;;;;;;24.23;4.03;;;21.00;75.70;;;;;;5038847;28;20037;-60
2022/07/12 07:21:31;;;;;;;12.15;3.50;;;21.00;75.70;;;;;;5036909;28;20057;-60
2022/07/12 07:23:57;;;;;;;19.13;3.63;;;21.10;75.90;;;;;;5032745;28;20124;-60
2022/07/12 07:26:22;;;;;;;15.55;3.33;;;21.00;76.20;;;;;;5037502;28;20044;-61
2022/07/12 07:31:36;;;;;;;39.17;5.35;;;21.00;77.10;;;;;;5035596;28;20075;-61
2022/07/12 07:34:01;;;;;;;13.63;3.42;;;21.00;77.30;;;;;;5021902;28;20111;-60
2022/07/12 07:36:27;;;;;;;16.17;3.75;;;21.00;77.40;;;;;;5040033;28;20033;-60
2022/07/12 07:38:52;;;;;;;29.90;4.47;;;21.00;77.60;;;;;;5022328;28;20057;-60
2022/07/12 07:41:18;;;;;;;28.77;4.38;;;21.00;77.20;;;;;;5035436;28;20048;-61
2022/07/12 07:43:43;;;;;;;24.17;4.13;;;21.10;77.70;;;;;;5038702;28;20052;-59
2022/07/12 07:46:09;;;;;;;30.17;4.95;;;21.10;77.80;;;;;;5039491;28;20116;-61
2022/07/12 07:48:35;;;;;;;41.95;6.05;;;21.10;77.70;;;;;;5022521;28;20290;-60
2022/07/12 07:51:00;;;;;;;27.45;4.32;;;21.10;78.00;;;;;;5038359;28;20119;-61
2022/07/12 07:53:26;;;;;;;32.45;4.80;;;21.10;77.90;;;;;;5041730;28;20029;-60
2022/07/12 07:55:51;;;;;;;30.13;4.93;;;21.20;77.90;;;;;;5020127;28;20102;-60
2022/07/12 07:58:17;;;;;;;22.88;4.00;;;21.10;77.80;;;;;;5033601;28;20037;-61
2022/07/12 08:00:42;;;;;;;25.70;4.25;;;21.20;77.90;;;;;;5033336;28;20048;-60
2022/07/12 08:03:08;;;;;;;23.95;4.57;;;21.20;77.80;;;;;;5035910;28;20087;-60
2022/07/12 08:05:33;;;;;;;36.80;5.07;;;21.20;77.90;;;;;;5014639;28;20146;-61
2022/07/12 08:07:59;;;;;;;25.17;4.13;;;21.20;78.00;;;;;;5027510;28;20115;-60
2022/07/12 08:10:25;;;;;;;20.10;3.70;;;21.30;78.10;;;;;;5037364;28;20480;-61
2022/07/12 08:12:50;;;;;;;27.73;4.03;;;21.30;78.10;;;;;;5035132;28;20036;-60
2022/07/12 08:15:16;;;;;;;30.67;4.15;;;21.30;78.20;;;;;;5032839;28;20179;-60
2022/07/12 08:17:41;;;;;;;23.05;4.38;;;21.30;78.20;;;;;;5029490;28;20497;-60
2022/07/12 08:20:07;;;;;;;31.45;4.38;;;21.30;78.10;;;;;;5033197;28;20471;-60
2022/07/12 08:22:33;;;;;;;20.10;4.32;;;21.30;78.20;;;;;;5035512;28;20013;-61
2022/07/12 08:24:59;;;;;;;24.77;3.53;;;21.30;78.10;;;;;;5014498;28;20028;-60
2022/07/12 08:27:24;;;;;;;27.33;4.20;;;21.30;78.00;;;;;;5033374;28;20060;-61
2022/07/12 08:29:50;;;;;;;22.33;4.25;;;21.40;78.10;;;;;;5022940;28;20128;-61
2022/07/12 08:32:15;;;;;;;28.25;3.55;;;21.40;77.60;;;;;;5018484;28;20075;-61
2022/07/12 08:34:41;;;;;;;20.40;4.40;;;21.40;77.90;;;;;;5016143;28;20428;-61
2022/07/12 08:37:07;;;;;;;12.65;2.63;;;21.40;77.90;;;;;;5035639;28;20052;-61
2022/07/12 08:39:32;;;;;;;23.95;3.42;;;21.40;77.10;;;;;;5027504;28;20049;-61
2022/07/12 08:41:58;;;;;;;24.63;3.85;;;21.50;77.70;;;;;;5019762;28;20049;-61
2022/07/12 08:44:23;;;;;;;28.77;3.45;;;21.50;77.50;;;;;;5030374;28;20037;-60
2022/07/12 08:46:49;;;;;;;19.98;3.05;;;21.60;77.60;;;;;;5030321;28;20108;-60
2022/07/12 08:49:14;;;;;;;18.17;3.95;;;21.60;77.40;;;;;;5025384;28;20124;-61
2022/07/12 08:51:40;;;;;;;15.02;3.25;;;21.60;77.40;;;;;;5029632;28;20776;-63
2022/07/12 08:54:12;;;;;;;15.70;3.22;;;21.60;77.40;;;;;;5032105;28;20060;-63
2022/07/12 08:56:40;;;;;;;13.80;3.17;;;21.60;77.40;;;;;;5031920;28;20033;-64
2022/07/12 08:59:23;;;;;;;10.63;2.80;;;21.60;77.20;;;;;;5030336;28;20035;-63
2022/07/12 09:01:50;;;;;;;14.75;2.45;;;21.60;77.20;;;;;;5035234;28;20029;-63
2022/07/12 09:04:18;;;;;;;16.13;3.03;;;21.70;77.20;;;;;;5018855;28;20036;-63
2022/07/12 09:06:43;;;;;;;7.10;2.47;;;21.70;77.10;;;;;;5027947;28;20029;-63
2022/07/12 09:09:09;;;;;;;13.63;3.00;;;21.70;77.00;;;;;;5025654;28;20033;-63
2022/07/12 09:11:38;;;;;;;41.97;4.50;;;21.80;77.10;;;;;;5027570;28;20397;-63
2022/07/12 09:14:04;;;;;;;30.08;4.38;;;21.80;77.10;;;;;;5029210;28;20029;-63
2022/07/12 09:16:30;;;;;;;17.85;3.08;;;21.90;76.80;;;;;;5020472;28;20509;-63
2022/07/12 09:19:19;;;;;;;26.27;3.28;;;21.90;76.70;;;;;;5026151;28;20161;-63
2022/07/12 09:21:54;;;;;;;25.42;3.88;;;21.90;76.50;;;;;;5032261;28;20584;-63
2022/07/12 09:24:29;;;;;;;37.08;5.32;;;21.90;76.30;;;;;;5031651;28;20119;-64
2022/07/12 09:27:03;;;;;;;13.83;3.40;;;22.00;76.20;;;;;;5035365;28;20069;-62
2022/07/12 09:29:29;;;;;;;36.90;4.50;;;22.00;76.60;;;;;;5032116;28;20287;-64
2022/07/12 09:37:23;;;;;;;36.13;4.85;;;22.10;75.00;;;;;;5034449;28;20032;-61
2022/07/12 09:39:49;;;;;;;42.35;4.45;;;22.10;74.40;;;;;;5030576;28;20056;-61
2022/07/12 09:42:14;;;;;;;34.40;4.47;;;22.10;74.00;;;;;;5013790;28;20411;-61
2022/07/12 09:44:40;;;;;;;35.80;5.80;;;22.10;73.70;;;;;;5034800;28;20040;-61
2022/07/12 09:47:09;;;;;;;54.28;5.00;;;22.20;73.80;;;;;;5014554;28;20033;-61
2022/07/12 09:49:34;;;;;;;32.33;4.18;;;22.10;73.70;;;;;;5018858;28;20025;-60
2022/07/12 09:52:00;;;;;;;41.15;4.90;;;22.20;74.30;;;;;;5007408;28;20063;-63
2022/07/12 09:54:27;;;;;;;67.55;7.65;;;22.20;73.50;;;;;;5010728;28;20033;-63
2022/07/12 09:56:58;;;;;;;35.97;4.03;;;22.20;73.30;;;;;;5029579;28;20021;-63
2022/07/12 09:59:24;;;;;;;24.88;3.42;;;22.30;73.30;;;;;;5034187;28;20048;-63
2022/07/12 10:01:51;;;;;;;22.13;3.55;;;22.30;72.80;;;;;;5012078;28;20025;-63
2022/07/12 10:04:20;;;;;;;18.77;3.50;;;22.40;72.40;;;;;;5018538;28;20037;-62
2022/07/12 10:06:47;;;;;;;27.90;3.88;;;22.40;71.90;;;;;;5032081;28;20033;-63
2022/07/12 10:09:12;;;;;;;32.10;3.90;;;22.40;71.30;;;;;;5032685;28;20172;-63
2022/07/12 10:11:38;;;;;;;19.75;3.17;;;22.50;71.00;;;;;;5015317;28;20232;-63
2022/07/12 10:14:03;;;;;;;19.67;3.90;;;22.50;70.90;;;;;;5022625;28;20036;-63
2022/07/12 10:16:29;;;;;;;25.05;3.67;;;22.60;71.20;;;;;;5026349;28;20037;-63
2022/07/12 10:19:31;;;;;;;43.80;6.32;;;22.60;70.90;;;;;;5013654;28;20152;-63
2022/07/12 10:21:57;;;;;;;89.07;13.18;;;22.70;70.40;;;;;;5019342;28;20071;-63
2022/07/12 10:24:32;;;;;;;14.48;3.78;;;22.70;69.90;;;;;;5020575;28;20021;-62
2022/07/12 10:27:15;;;;;;;25.00;3.43;;;22.80;69.40;;;;;;5030184;28;20120;-62
2022/07/12 10:29:44;;;;;;;29.70;4.03;;;22.90;69.10;;;;;;5020404;28;20280;-63
2022/07/12 10:32:45;;;;;;;32.15;3.65;;;23.00;68.90;;;;;;5038140;28;20023;-63
2022/07/12 10:35:18;;;;;;;14.52;2.67;;;23.00;68.70;;;;;;5041284;28;20046;-62
2022/07/12 10:38:13;;;;;;;10.90;2.42;;;23.10;68.60;;;;;;5031072;28;20053;-62
2022/07/12 10:40:39;;;;;;;10.60;2.72;;;23.20;67.70;;;;;;5026791;28;20072;-63
2022/07/12 10:43:05;;;;;;;15.77;2.22;;;23.20;67.60;;;;;;5020743;28;20045;-63
2022/07/12 10:45:38;;;;;;;15.65;2.28;;;23.20;67.00;;;;;;5030815;28;20062;-63
2022/07/12 10:48:04;;;;;;;16.88;2.53;;;23.30;66.80;;;;;;5034487;28;20547;-62
2022/07/12 10:53:33;;;;;;;13.35;2.20;;;23.40;65.90;;;;;;5034278;28;20388;-63
2022/07/12 10:56:15;;;;;;;17.50;2.17;;;23.50;65.00;;;;;;5016976;28;20427;-64
2022/07/12 10:58:48;;;;;;;26.48;3.45;;;23.50;64.90;;;;;;5029553;28;20029;-62
2022/07/12 11:01:15;;;;;;;14.80;2.80;;;23.60;64.50;;;;;;5010587;28;20029;-63
2022/07/12 11:03:46;;;;;;;13.13;2.60;;;23.70;64.20;;;;;;5026143;28;20044;-62
2022/07/12 11:06:16;;;;;;;14.45;2.45;;;23.70;64.00;;;;;;5029448;28;20128;-63
2022/07/12 11:08:51;;;;;;;12.93;2.10;;;23.80;63.50;;;;;;4999236;28;20079;-63
2022/07/12 11:11:17;;;;;;;5.32;1.48;;;24.00;62.70;;;;;;5027057;28;20035;-63
2022/07/12 11:13:43;;;;;;;7.72;1.92;;;24.00;62.10;;;;;;5001936;28;20469;-62
2022/07/12 11:16:08;;;;;;;5.80;1.65;;;24.10;61.10;;;;;;5024306;28;20171;-64
2022/07/12 11:18:35;;;;;;;9.05;1.48;;;24.20;60.50;;;;;;5030878;28;20037;-62
2022/07/12 11:21:00;;;;;;;5.82;1.40;;;24.30;60.40;;;;;;5027844;28;20032;-63
2022/07/12 11:23:26;;;;;;;4.70;1.20;;;24.50;60.00;;;;;;5031406;28;20040;-63
2022/07/12 11:25:55;;;;;;;7.15;1.55;;;24.60;59.90;;;;;;5034621;28;20458;-63
2022/07/12 11:28:22;;;;;;;8.20;1.40;;;24.70;59.70;;;;;;5020838;28;20054;-63
2022/07/12 11:30:51;;;;;;;3.78;1.33;;;24.80;59.30;;;;;;5018013;28;20025;-63
2022/07/12 11:33:17;;;;;;;16.83;1.83;;;24.80;59.20;;;;;;5038259;28;20033;-63
2022/07/12 11:35:44;;;;;;;11.45;1.48;;;24.90;59.20;;;;;;5017590;28;20047;-63
2022/07/12 11:38:09;;;;;;;13.98;1.83;;;25.00;59.20;;;;;;5018735;28;20123;-63
2022/07/12 11:40:35;;;;;;;17.20;1.75;;;25.00;58.80;;;;;;5039408;28;20124;-62
2022/07/12 11:43:01;;;;;;;11.60;1.90;;;25.10;58.60;;;;;;5037495;28;20029;-63
2022/07/12 11:45:33;;;;;;;10.52;1.85;;;25.20;58.50;;;;;;5038698;28;20013;-63
2022/07/12 11:48:02;;;;;;;15.43;2.10;;;25.20;57.50;;;;;;5036028;28;20057;-63
2022/07/12 11:50:31;;;;;;;11.65;2.08;;;25.30;57.50;;;;;;5016165;28;20051;-63
2022/07/12 11:52:57;;;;;;;13.65;2.45;;;25.40;57.50;;;;;;5024420;28;20052;-63
2022/07/12 11:55:23;;;;;;;16.13;2.63;;;25.50;57.70;;;;;;5030383;28;20706;-63
2022/07/12 11:57:48;;;;;;;30.83;2.90;;;25.50;57.30;;;;;;5033816;28;20033;-63
2022/07/12 12:00:18;;;;;;;16.30;2.95;;;25.60;57.20;;;;;;5019347;28;20608;-63
2022/07/12 12:02:44;;;;;;;19.55;2.97;;;25.70;56.90;;;;;;5041321;28;20030;-64
2022/07/12 12:05:10;;;;;;;20.67;2.85;;;25.70;56.60;;;;;;5033621;28;20017;-63
2022/07/12 12:07:35;;;;;;;30.08;3.80;;;25.80;56.60;;;;;;5004889;28;20020;-61
2022/07/12 12:10:14;;;;;;;31.83;3.85;;;25.80;56.40;;;;;;5035667;28;20507;-61
2022/07/12 12:12:50;;;;;;;31.25;4.18;;;25.90;56.00;;;;;;5021089;28;20025;-61
2022/07/12 12:15:27;;;;;;;38.90;4.55;;;26.00;55.50;;;;;;5033877;28;20022;-61
2022/07/12 12:18:03;;;;;;;30.48;4.13;;;26.00;55.20;;;;;;5017462;28;20029;-60
2022/07/12 12:20:29;;;;;;;41.00;4.85;;;26.10;55.30;;;;;;5018413;28;20085;-61
2022/07/12 12:22:55;;;;;;;30.17;3.75;;;26.20;55.20;;;;;;5029387;28;20042;-61
2022/07/12 12:25:21;;;;;;;32.88;3.88;;;26.20;54.80;;;;;;5037076;28;20087;-61
2022/07/12 12:27:54;;;;;;;47.42;5.53;;;26.30;54.40;;;;;;5035322;28;20442;-61
2022/07/12 12:30:20;;;;;;;48.47;5.85;;;26.30;54.50;;;;;;5038782;28;20037;-61
2022/07/12 12:32:58;;;;;;;50.60;5.38;;;26.40;54.70;;;;;;5021911;28;20056;-62
2022/07/12 12:35:33;;;;;;;34.83;3.95;;;26.40;54.60;;;;;;5031240;28;20032;-61
2022/07/12 12:38:00;;;;;;;49.67;5.85;;;26.40;54.00;;;;;;5031793;28;20493;-64
2022/07/12 12:40:27;;;;;;;34.28;4.18;;;26.50;54.50;;;;;;5034126;28;20366;-62
2022/07/12 12:42:53;;;;;;;45.10;5.65;;;26.60;54.70;;;;;;5029336;28;20473;-61
2022/07/12 12:45:19;;;;;;;51.35;5.80;;;26.60;54.90;;;;;;5009451;28;20033;-61
2022/07/12 12:47:52;;;;;;;38.10;5.20;;;26.70;55.20;;;;;;5034355;28;20088;-62
2022/07/12 12:50:34;;;;;;;59.80;7.32;;;26.80;55.40;;;;;;5036486;28;20025;-62
2022/07/12 12:53:00;;;;;;;66.10;7.10;;;26.90;55.50;;;;;;5025319;28;20502;-62